Time;durP1;ratioP1;P1;durP2;ratioP2;P2;SDS_P1;SDS_P2;PMS_P1;PMS_P2;Temp;Humidity;BMP_temperature;BMP_pressure;BME280_temperature;BME280_humidity;BME280_pressure;Samples;Min_cycle;Max_cycle;Signal;HPM_P1;HPM_P2
2023/01/22 00:01:01;;;;;;;4.18;0.93;;;4.70;67.00;;;;;;5108150;28;20028;-71
2023/01/22 00:03:26;;;;;;;1.73;0.98;;;4.90;67.40;;;;;;5108480;28;20063;-71
2023/01/22 00:05:52;;;;;;;2.72;0.98;;;4.70;67.90;;;;;;5109294;28;20066;-71
2023/01/22 00:08:18;;;;;;;2.03;0.85;;;4.70;67.80;;;;;;5111593;28;20504;-72
2023/01/22 00:10:51;;;;;;;1.48;0.70;;;4.80;66.90;;;;;;5111745;28;20366;-71
2023/01/22 00:13:17;;;;;;;1.15;0.60;;;4.70;68.00;;;;;;5110787;28;20111;-72
2023/01/22 00:15:43;;;;;;;1.58;0.90;;;4.70;67.30;;;;;;5110170;28;20516;-72
2023/01/22 00:18:09;;;;;;;2.95;0.95;;;4.80;66.80;;;;;;5112136;28;20019;-72
2023/01/22 00:20:34;;;;;;;3.03;0.90;;;4.80;66.60;;;;;;5112584;28;20039;-72
2023/01/22 00:23:00;;;;;;;2.05;0.75;;;4.90;67.10;;;;;;5113181;28;20067;-72
2023/01/22 00:25:25;;;;;;;0.95;0.57;;;4.80;68.10;;;;;;5113455;28;20104;-71
2023/01/22 00:27:51;;;;;;;2.13;0.95;;;4.70;68.50;;;;;;5113253;28;20020;-72
2023/01/22 00:30:17;;;;;;;1.30;0.70;;;4.70;67.70;;;;;;5112880;28;20074;-72
2023/01/22 00:32:44;;;;;;;1.23;0.60;;;4.80;67.00;;;;;;5112940;28;20035;-72
2023/01/22 00:35:10;;;;;;;1.80;0.77;;;4.80;66.90;;;;;;5116890;28;20523;-72
2023/01/22 00:37:36;;;;;;;1.88;0.63;;;4.70;67.30;;;;;;5117195;28;20126;-72
2023/01/22 00:40:02;;;;;;;1.77;0.70;;;4.70;67.70;;;;;;5117224;28;20027;-72
2023/01/22 00:42:27;;;;;;;2.30;1.17;;;4.70;67.60;;;;;;5116159;28;20031;-72
2023/01/22 00:44:53;;;;;;;1.83;0.90;;;4.80;66.70;;;;;;5116786;28;20478;-72
2023/01/22 00:47:19;;;;;;;2.00;0.88;;;4.80;67.80;;;;;;5117072;28;20041;-72
2023/01/22 00:49:44;;;;;;;3.13;0.80;;;4.70;67.90;;;;;;5116351;28;20070;-72
2023/01/22 00:52:10;;;;;;;2.40;0.95;;;4.70;68.70;;;;;;5116781;28;20409;-72
2023/01/22 00:54:36;;;;;;;1.30;0.82;;;4.70;67.70;;;;;;5116859;28;20090;-72
2023/01/22 00:57:01;;;;;;;2.63;0.88;;;4.70;68.10;;;;;;5116893;28;20035;-72
2023/01/22 00:59:27;;;;;;;2.25;0.98;;;4.70;68.10;;;;;;5116900;28;20611;-72
2023/01/22 01:01:53;;;;;;;2.60;1.15;;;4.60;68.90;;;;;;5116885;28;20027;-72
2023/01/22 01:04:18;;;;;;;1.40;0.75;;;4.50;69.30;;;;;;5116489;28;20094;-72
2023/01/22 01:06:44;;;;;;;1.98;0.80;;;4.60;68.00;;;;;;5116117;28;20093;-72
2023/01/22 01:09:10;;;;;;;2.03;0.80;;;4.70;67.80;;;;;;5114666;28;20027;-72
2023/01/22 01:11:36;;;;;;;1.55;0.68;;;4.70;68.20;;;;;;5116516;28;20036;-72
2023/01/22 01:14:02;;;;;;;2.53;0.90;;;4.70;68.40;;;;;;5115631;28;20028;-72
2023/01/22 01:16:30;;;;;;;1.77;0.70;;;4.70;67.70;;;;;;5114693;28;20027;-72
2023/01/22 01:19:01;;;;;;;1.92;0.90;;;4.70;68.30;;;;;;5116038;28;20114;-71
2023/01/22 01:21:28;;;;;;;1.88;0.85;;;4.70;67.70;;;;;;5116132;28;20031;-72
2023/01/22 01:23:55;;;;;;;1.48;0.60;;;4.70;68.60;;;;;;5116217;28;20032;-72
2023/01/22 01:26:21;;;;;;;2.30;0.80;;;4.60;68.90;;;;;;5115633;28;20546;-72
2023/01/22 01:28:46;;;;;;;1.52;0.85;;;4.60;68.70;;;;;;5115582;28;20020;-72
2023/01/22 01:31:14;;;;;;;1.83;0.70;;;4.70;68.00;;;;;;5115908;28;20047;-72
2023/01/22 01:33:40;;;;;;;2.20;0.90;;;4.50;69.60;;;;;;5115784;28;20016;-72
2023/01/22 01:36:24;;;;;;;1.27;0.80;;;4.50;69.00;;;;;;5115321;28;20051;-72
2023/01/22 01:38:50;;;;;;;1.40;0.70;;;4.70;67.90;;;;;;5116196;28;20027;-72
2023/01/22 01:41:20;;;;;;;2.92;1.13;;;4.60;69.30;;;;;;5116059;28;20126;-72
2023/01/22 01:44:04;;;;;;;2.15;0.88;;;4.60;68.60;;;;;;5115829;28;20030;-72
2023/01/22 01:46:30;;;;;;;1.98;0.88;;;4.70;68.40;;;;;;5114750;28;20394;-72
2023/01/22 01:48:56;;;;;;;1.63;0.68;;;4.60;70.10;;;;;;5115775;28;20043;-72
2023/01/22 01:51:32;;;;;;;5.25;1.05;;;4.70;68.00;;;;;;5115876;28;20019;-72
2023/01/22 01:53:59;;;;;;;1.52;0.70;;;4.70;68.20;;;;;;5115044;28;20028;-72
2023/01/22 01:56:48;;;;;;;1.52;0.80;;;4.60;68.60;;;;;;5114773;28;20082;-72
2023/01/22 01:59:17;;;;;;;1.92;0.77;;;4.60;69.40;;;;;;5115141;28;20080;-72
2023/01/22 02:01:50;;;;;;;2.47;0.82;;;4.60;68.50;;;;;;5115292;28;20458;-72
2023/01/22 02:04:15;;;;;;;1.50;0.50;;;4.70;68.70;;;;;;5114982;28;20040;-72
2023/01/22 02:06:41;;;;;;;2.38;0.77;;;4.70;68.70;;;;;;5116481;28;20508;-72
2023/01/22 02:09:07;;;;;;;1.42;0.60;;;4.70;68.70;;;;;;5115713;28;20027;-72
2023/01/22 02:11:33;;;;;;;1.85;0.70;;;4.60;68.90;;;;;;5115299;28;20024;-72
2023/01/22 02:14:13;;;;;;;0.85;0.50;;;4.60;69.20;;;;;;5115229;28;20042;-72
2023/01/22 02:16:38;;;;;;;1.27;0.52;;;4.50;69.40;;;;;;5115553;28;20141;-72
2023/01/22 02:19:04;;;;;;;0.75;0.50;;;4.60;69.70;;;;;;5115231;28;20115;-72
2023/01/22 02:21:40;;;;;;;1.75;0.60;;;4.60;69.80;;;;;;5113590;28;20031;-72
2023/01/22 02:24:12;;;;;;;1.02;0.60;;;4.60;69.60;;;;;;5114904;28;20051;-72
2023/01/22 02:26:38;;;;;;;2.95;0.70;;;4.60;68.70;;;;;;5115224;28;20035;-72
2023/01/22 02:29:06;;;;;;;1.35;0.65;;;4.60;69.30;;;;;;5114903;28;20072;-72
2023/01/22 02:31:33;;;;;;;1.95;0.73;;;4.60;69.10;;;;;;5114668;28;20085;-72
2023/01/22 02:34:00;;;;;;;3.75;0.60;;;4.70;69.00;;;;;;5114082;28;20027;-71
2023/01/22 02:36:27;;;;;;;1.77;0.70;;;4.70;69.90;;;;;;5114845;28;20040;-72
2023/01/22 02:38:53;;;;;;;0.68;0.57;;;4.60;69.30;;;;;;5114828;28;20102;-72
2023/01/22 02:41:19;;;;;;;1.48;0.63;;;4.70;68.90;;;;;;5114313;28;20074;-72
2023/01/22 02:43:45;;;;;;;1.48;0.63;;;4.60;70.50;;;;;;5114056;28;20027;-72
2023/01/22 02:46:10;;;;;;;2.38;0.50;;;4.60;70.50;;;;;;5114103;28;20130;-72
2023/01/22 02:48:36;;;;;;;1.02;0.57;;;4.60;70.40;;;;;;5113645;28;20031;-72
2023/01/22 02:51:03;;;;;;;1.52;1.02;;;4.50;71.50;;;;;;5114664;28;20046;-72
2023/01/22 02:53:28;;;;;;;2.15;1.05;;;4.50;69.20;;;;;;5114514;28;20382;-71
2023/01/22 02:55:54;;;;;;;0.75;0.50;;;4.50;69.30;;;;;;5113915;28;20023;-72
2023/01/22 02:58:20;;;;;;;1.63;0.70;;;4.50;70.40;;;;;;5114443;28;20031;-71
2023/01/22 03:00:45;;;;;;;0.90;0.50;;;4.50;70.00;;;;;;5114074;28;20414;-72
2023/01/22 03:03:14;;;;;;;1.38;0.55;;;4.50;69.30;;;;;;5114045;28;20491;-72
2023/01/22 03:05:45;;;;;;;1.20;0.60;;;4.40;72.00;;;;;;5114322;28;20020;-72
2023/01/22 03:08:11;;;;;;;2.08;0.93;;;4.60;68.50;;;;;;5114428;28;20031;-72
2023/01/22 03:10:36;;;;;;;1.33;0.60;;;4.70;68.40;;;;;;5114237;28;20024;-72
2023/01/22 03:21:15;;;;;;;1.15;0.60;;;4.40;70.40;;;;;;5114270;28;20269;-72
2023/01/22 03:23:46;;;;;;;1.08;0.60;;;4.40;71.00;;;;;;5113585;28;20076;-72
2023/01/22 03:26:12;;;;;;;1.23;0.60;;;4.40;70.10;;;;;;5113522;28;20031;-72
2023/01/22 03:28:38;;;;;;;1.38;0.57;;;4.40;71.80;;;;;;5113835;28;20116;-72
2023/01/22 03:31:04;;;;;;;1.35;0.55;;;4.20;73.30;;;;;;5113847;28;20492;-72
2023/01/22 03:33:31;;;;;;;1.08;0.50;;;4.10;70.30;;;;;;5113417;28;20027;-72
2023/01/22 03:36:01;;;;;;;1.73;0.73;;;4.20;71.70;;;;;;5113163;28;20039;-72
2023/01/22 03:38:27;;;;;;;1.30;0.60;;;4.10;73.30;;;;;;5113793;28;20035;-72
2023/01/22 03:40:52;;;;;;;1.20;0.60;;;4.00;72.60;;;;;;5113743;28;20036;-72
2023/01/22 03:43:18;;;;;;;1.85;0.70;;;4.20;71.10;;;;;;5112680;28;20045;-72
2023/01/22 03:45:44;;;;;;;1.15;0.60;;;4.30;71.10;;;;;;5113055;28;20362;-72
2023/01/22 03:48:09;;;;;;;1.23;0.65;;;4.20;70.50;;;;;;5113457;28;20059;-72
2023/01/22 03:50:35;;;;;;;1.73;0.77;;;4.20;71.50;;;;;;5113559;28;20032;-72
2023/01/22 03:53:02;;;;;;;0.75;0.55;;;4.10;73.20;;;;;;5113182;28;20038;-72
2023/01/22 03:55:28;;;;;;;1.20;0.47;;;4.10;71.60;;;;;;5113475;28;20024;-71
2023/01/22 03:57:54;;;;;;;1.77;0.68;;;4.20;73.00;;;;;;5113413;28;20081;-71
2023/01/22 04:00:20;;;;;;;1.15;0.65;;;4.00;73.70;;;;;;5113211;28;20027;-70
2023/01/22 04:02:46;;;;;;;1.35;0.55;;;4.00;72.20;;;;;;5110919;28;20457;-70
2023/01/22 04:05:11;;;;;;;1.05;0.50;;;3.90;72.40;;;;;;5108016;28;20027;-70
2023/01/22 04:07:37;;;;;;;1.10;0.55;;;4.00;72.70;;;;;;5107620;28;20031;-70
2023/01/22 04:10:03;;;;;;;0.95;0.52;;;3.80;74.20;;;;;;5107062;28;20050;-70
2023/01/22 04:12:28;;;;;;;1.63;0.85;;;3.90;71.90;;;;;;5108047;28;20058;-70
2023/01/22 04:14:54;;;;;;;1.15;0.52;;;4.00;71.90;;;;;;5108460;28;20024;-70
2023/01/22 04:17:20;;;;;;;2.60;0.70;;;4.10;71.10;;;;;;5105740;28;20039;-70
2023/01/22 04:19:45;;;;;;;2.22;0.73;;;4.10;71.80;;;;;;5105728;28;20023;-71
2023/01/22 04:22:11;;;;;;;1.58;0.73;;;4.00;74.30;;;;;;5105795;28;20032;-71
2023/01/22 04:24:37;;;;;;;2.10;0.60;;;3.70;75.20;;;;;;5108438;28;20176;-70
2023/01/22 04:27:02;;;;;;;1.35;0.60;;;3.80;72.60;;;;;;5108774;28;20031;-70
2023/01/22 04:29:28;;;;;;;1.50;0.65;;;3.90;72.80;;;;;;5108850;28;20030;-70
2023/01/22 04:31:53;;;;;;;1.20;0.70;;;4.00;72.20;;;;;;5108969;28;20051;-70
2023/01/22 04:34:19;;;;;;;1.67;0.70;;;4.00;71.40;;;;;;5108548;28;20239;-70
2023/01/22 04:36:45;;;;;;;1.35;0.60;;;4.20;71.30;;;;;;5107143;28;20036;-70
2023/01/22 04:39:10;;;;;;;0.95;0.40;;;4.10;71.00;;;;;;5107777;28;20023;-70
2023/01/22 04:41:36;;;;;;;1.23;0.60;;;3.80;72.00;;;;;;5108645;28;20534;-70
2023/01/22 04:44:02;;;;;;;1.15;0.65;;;3.80;73.30;;;;;;5108499;28;20044;-70
2023/01/22 04:46:27;;;;;;;1.50;0.75;;;3.80;72.00;;;;;;5108648;28;20382;-70
2023/01/22 04:48:53;;;;;;;1.35;0.60;;;4.10;70.40;;;;;;5108511;28;20543;-70
2023/01/22 04:51:19;;;;;;;2.13;0.80;;;4.30;69.90;;;;;;5108369;28;20621;-70
2023/01/22 04:53:44;;;;;;;1.80;0.65;;;4.30;70.10;;;;;;5108458;28;20122;-70
2023/01/22 04:56:10;;;;;;;0.95;0.50;;;4.20;69.90;;;;;;5108398;28;20039;-70
2023/01/22 04:58:35;;;;;;;0.63;0.40;;;4.20;70.60;;;;;;5106986;28;20028;-70
2023/01/22 05:01:01;;;;;;;1.20;0.60;;;4.20;70.40;;;;;;5107976;28;20470;-70
2023/01/22 05:03:27;;;;;;;1.15;0.80;;;4.20;71.40;;;;;;5108050;28;20080;-70
2023/01/22 05:05:52;;;;;;;0.85;0.52;;;4.10;70.60;;;;;;5106378;28;20031;-70
2023/01/22 05:08:18;;;;;;;5.63;1.15;;;4.20;71.00;;;;;;5105505;28;20035;-70
2023/01/22 05:10:44;;;;;;;3.17;1.02;;;4.10;73.00;;;;;;5104726;28;20031;-70
2023/01/22 05:13:09;;;;;;;1.08;0.60;;;4.10;70.90;;;;;;5104285;28;20146;-70
2023/01/22 05:15:35;;;;;;;1.90;0.60;;;4.00;71.70;;;;;;5106304;28;20035;-70
2023/01/22 05:18:00;;;;;;;1.35;0.70;;;4.00;71.40;;;;;;5108225;28;20055;-70
2023/01/22 05:20:26;;;;;;;1.20;0.70;;;4.00;71.50;;;;;;5109445;28;20073;-70
2023/01/22 05:22:52;;;;;;;1.75;0.75;;;4.00;71.30;;;;;;5111226;28;20024;-71
2023/01/22 05:25:18;;;;;;;1.92;0.70;;;3.90;72.10;;;;;;5091362;28;20474;-70
2023/01/22 05:27:43;;;;;;;1.77;0.80;;;3.90;71.70;;;;;;5091520;28;20024;-70
2023/01/22 05:30:10;;;;;;;0.52;0.40;;;3.90;73.40;;;;;;5091215;28;20108;-70
2023/01/22 05:32:36;;;;;;;1.25;0.50;;;3.90;72.00;;;;;;5093714;28;20558;-70
2023/01/22 05:35:04;;;;;;;0.52;0.47;;;3.90;71.60;;;;;;5108960;28;20030;-70
2023/01/22 05:37:31;;;;;;;1.48;0.60;;;4.10;71.30;;;;;;5107984;28;20152;-70
2023/01/22 05:39:56;;;;;;;1.25;0.60;;;3.90;74.10;;;;;;5110653;28;20025;-70
2023/01/22 05:42:22;;;;;;;1.52;0.70;;;3.90;72.40;;;;;;5111255;28;20495;-70
2023/01/22 05:44:48;;;;;;;1.75;0.88;;;3.90;72.60;;;;;;5111291;28;20047;-70
2023/01/22 05:47:14;;;;;;;1.95;0.68;;;3.80;73.40;;;;;;5110314;28;20031;-70
2023/01/22 05:49:40;;;;;;;1.95;1.10;;;4.00;70.80;;;;;;5110857;28;20030;-70
2023/01/22 05:52:09;;;;;;;1.67;0.55;;;4.10;70.60;;;;;;5110829;28;20107;-70
2023/01/22 05:54:35;;;;;;;3.72;0.80;;;4.10;70.60;;;;;;5110717;28;20019;-70
2023/01/22 05:57:01;;;;;;;1.88;0.80;;;4.10;70.70;;;;;;5110936;28;20500;-70
2023/01/22 05:59:26;;;;;;;1.15;0.73;;;4.10;70.60;;;;;;5110803;28;20028;-70
2023/01/22 06:01:52;;;;;;;0.88;0.68;;;4.10;70.80;;;;;;5111068;28;20052;-70
2023/01/22 06:04:18;;;;;;;1.55;0.70;;;4.00;71.00;;;;;;5111070;28;20065;-70
2023/01/22 06:06:43;;;;;;;1.63;0.77;;;4.10;71.10;;;;;;5111019;28;20031;-70
2023/01/22 06:09:11;;;;;;;1.60;0.70;;;4.00;70.70;;;;;;5109218;28;20024;-70
2023/01/22 06:11:37;;;;;;;1.40;0.65;;;3.90;71.80;;;;;;5107518;28;20425;-70
2023/01/22 06:14:03;;;;;;;1.95;0.80;;;3.90;72.30;;;;;;5107563;28;20077;-70
2023/01/22 06:16:29;;;;;;;2.05;0.90;;;4.00;71.30;;;;;;5107886;28;20059;-70
2023/01/22 06:18:55;;;;;;;3.63;0.90;;;4.10;71.70;;;;;;5108813;28;20051;-70
2023/01/22 06:21:20;;;;;;;1.55;0.80;;;4.00;71.50;;;;;;5108743;28;20077;-71
2023/01/22 06:23:46;;;;;;;1.52;0.60;;;4.00;71.50;;;;;;5108907;28;20031;-70
2023/01/22 06:26:12;;;;;;;2.72;1.17;;;4.00;72.10;;;;;;5108395;28;20028;-70
2023/01/22 06:28:37;;;;;;;2.42;1.02;;;3.90;71.60;;;;;;5108053;28;20385;-70
2023/01/22 06:31:06;;;;;;;2.05;0.77;;;3.90;72.80;;;;;;5107163;28;20126;-70
2023/01/22 06:33:36;;;;;;;3.33;0.88;;;3.80;72.60;;;;;;5107563;28;20020;-71
2023/01/22 06:36:02;;;;;;;1.65;0.75;;;3.80;71.80;;;;;;5107046;28;20126;-70
2023/01/22 06:38:29;;;;;;;2.15;0.60;;;3.90;71.20;;;;;;5107797;28;20031;-70
2023/01/22 06:40:56;;;;;;;1.42;0.38;;;4.00;71.20;;;;;;5106942;28;20028;-70
2023/01/22 06:43:22;;;;;;;3.40;0.70;;;3.80;75.20;;;;;;5106477;28;20110;-70
2023/01/22 06:45:49;;;;;;;0.80;0.32;;;3.70;75.20;;;;;;5107447;28;20043;-70
2023/01/22 06:48:16;;;;;;;2.42;0.68;;;3.60;73.40;;;;;;5106776;28;20039;-70
2023/01/22 06:50:42;;;;;;;1.00;0.60;;;3.70;72.70;;;;;;5106999;28;20374;-70
2023/01/22 06:53:08;;;;;;;2.00;0.90;;;3.70;73.40;;;;;;5088986;28;20034;-70
2023/01/22 06:55:34;;;;;;;1.98;0.82;;;3.80;73.10;;;;;;5106956;28;20027;-70
2023/01/22 06:57:59;;;;;;;2.35;0.90;;;3.80;72.40;;;;;;5106302;28;20019;-70
2023/01/22 07:00:25;;;;;;;1.90;1.10;;;3.90;71.60;;;;;;5106559;28;20047;-70
2023/01/22 07:02:51;;;;;;;1.45;0.77;;;3.90;72.60;;;;;;5106770;28;20070;-70
2023/01/22 07:05:18;;;;;;;1.80;0.93;;;4.00;72.50;;;;;;5106577;28;20098;-70
2023/01/22 07:07:45;;;;;;;2.72;0.90;;;3.90;73.90;;;;;;5106661;28;20120;-70
2023/01/22 07:10:11;;;;;;;1.13;0.70;;;3.90;73.80;;;;;;5106736;28;20398;-70
2023/01/22 07:12:37;;;;;;;2.00;0.95;;;3.90;72.80;;;;;;5105725;28;20035;-70
2023/01/22 07:15:05;;;;;;;5.20;2.20;;;4.00;71.60;;;;;;5106768;28;20035;-70
2023/01/22 07:17:31;;;;;;;2.83;1.08;;;4.10;71.10;;;;;;5106478;28;20894;-70
2023/01/22 07:19:57;;;;;;;1.77;0.80;;;4.10;71.20;;;;;;5106943;28;20069;-70
2023/01/22 07:22:23;;;;;;;1.15;0.70;;;4.10;71.30;;;;;;5106568;28;20024;-70
2023/01/22 07:24:48;;;;;;;1.52;0.90;;;4.20;70.10;;;;;;5105377;28;20036;-70
2023/01/22 07:27:14;;;;;;;2.95;0.70;;;4.20;70.40;;;;;;5106808;28;20028;-70
2023/01/22 07:29:40;;;;;;;1.13;0.55;;;4.20;71.00;;;;;;5106562;28;20051;-70
2023/01/22 07:32:05;;;;;;;2.65;0.98;;;4.20;70.70;;;;;;5104039;28;20028;-70
2023/01/22 07:34:31;;;;;;;2.00;0.90;;;4.20;71.00;;;;;;5106964;28;20019;-70
2023/01/22 07:36:57;;;;;;;1.30;0.75;;;4.20;71.40;;;;;;5106041;28;20050;-70
2023/01/22 07:39:22;;;;;;;2.20;1.00;;;4.20;72.00;;;;;;5106636;28;20122;-70
2023/01/22 07:41:48;;;;;;;3.03;1.20;;;4.10;71.30;;;;;;5106445;28;20507;-70
2023/01/22 07:44:15;;;;;;;2.58;1.00;;;4.20;71.40;;;;;;5104054;28;20036;-70
2023/01/22 07:46:40;;;;;;;2.38;0.82;;;4.20;71.70;;;;;;5105546;28;20044;-70
2023/01/22 07:49:06;;;;;;;1.45;0.65;;;4.10;72.30;;;;;;5105515;28;20095;-70
2023/01/22 07:51:32;;;;;;;1.70;0.90;;;3.90;72.40;;;;;;5105768;28;20031;-70
2023/01/22 07:53:57;;;;;;;2.72;0.80;;;4.00;73.00;;;;;;5106294;28;20452;-70
2023/01/22 07:56:23;;;;;;;1.45;0.57;;;4.00;72.50;;;;;;5104653;28;20039;-70
2023/01/22 07:58:49;;;;;;;1.88;0.70;;;4.10;71.60;;;;;;5105539;28;20469;-70
2023/01/22 08:01:15;;;;;;;1.45;0.55;;;4.20;70.30;;;;;;5105449;28;20373;-70
2023/01/22 08:03:41;;;;;;;1.50;0.70;;;4.30;70.50;;;;;;5105406;28;20118;-70
2023/01/22 08:06:08;;;;;;;2.92;1.25;;;4.30;71.80;;;;;;5105771;28;20111;-70
2023/01/22 08:08:34;;;;;;;1.80;0.98;;;4.20;73.60;;;;;;5105772;28;20118;-70
2023/01/22 08:11:00;;;;;;;4.70;1.33;;;4.10;71.80;;;;;;5106125;28;20407;-70
2023/01/22 08:13:25;;;;;;;3.35;1.35;;;4.20;71.70;;;;;;5105864;28;20022;-70
2023/01/22 08:15:53;;;;;;;2.05;0.95;;;4.20;72.20;;;;;;5105305;28;20020;-70
2023/01/22 08:18:19;;;;;;;1.77;0.80;;;4.20;72.20;;;;;;5104627;28;20477;-70
2023/01/22 08:20:45;;;;;;;2.88;1.13;;;4.20;72.10;;;;;;5106028;28;20095;-70
2023/01/22 08:23:11;;;;;;;1.58;0.70;;;4.30;72.00;;;;;;5105606;28;20067;-70
2023/01/22 08:25:36;;;;;;;2.42;1.10;;;4.40;71.20;;;;;;5105742;28;20028;-70
2023/01/22 08:28:03;;;;;;;2.13;0.90;;;4.40;70.90;;;;;;5105761;28;20034;-70
2023/01/22 08:30:30;;;;;;;3.20;1.00;;;4.40;71.10;;;;;;5106199;28;20534;-70
2023/01/22 08:32:56;;;;;;;1.73;0.75;;;4.40;71.80;;;;;;5105560;28;20482;-70
2023/01/22 08:35:22;;;;;;;2.70;1.05;;;4.50;71.70;;;;;;5104600;28;20031;-70
2023/01/22 08:37:47;;;;;;;2.13;0.98;;;4.50;71.70;;;;;;5105738;28;20560;-70
2023/01/22 08:40:13;;;;;;;2.10;1.10;;;4.50;71.20;;;;;;5105684;28;20028;-70
2023/01/22 08:42:39;;;;;;;1.95;0.77;;;4.50;70.90;;;;;;5105392;28;20386;-70
2023/01/22 08:45:06;;;;;;;1.50;0.70;;;4.60;70.60;;;;;;5104888;28;20126;-70
2023/01/22 08:47:32;;;;;;;3.10;1.00;;;4.70;70.80;;;;;;5102790;28;20023;-70
2023/01/22 08:49:58;;;;;;;3.00;0.65;;;4.70;70.80;;;;;;5102207;28;20027;-70
2023/01/22 08:52:23;;;;;;;1.23;0.60;;;4.70;70.30;;;;;;5105353;28;20106;-70
2023/01/22 08:54:49;;;;;;;1.92;0.80;;;4.70;71.10;;;;;;5107481;28;20054;-70
2023/01/22 08:57:15;;;;;;;1.88;0.90;;;4.70;71.10;;;;;;5109153;28;20070;-70
2023/01/22 08:59:40;;;;;;;1.92;0.88;;;4.80;70.60;;;;;;5109320;28;20027;-70
2023/01/22 09:02:12;;;;;;;2.90;1.00;;;4.80;70.40;;;;;;5109304;28;20117;-70
2023/01/22 09:04:38;;;;;;;2.67;0.98;;;4.80;70.40;;;;;;5110543;28;20114;-70
2023/01/22 09:07:03;;;;;;;1.73;0.88;;;4.80;70.60;;;;;;5112070;28;20408;-70
2023/01/22 09:09:29;;;;;;;2.78;1.00;;;4.90;71.20;;;;;;5112249;28;20036;-70
2023/01/22 09:11:55;;;;;;;2.67;1.20;;;5.00;71.50;;;;;;5110699;28;20036;-70
2023/01/22 09:14:20;;;;;;;1.52;0.80;;;5.00;71.80;;;;;;5112095;28;20031;-70
2023/01/22 09:16:46;;;;;;;1.65;0.80;;;5.10;71.50;;;;;;5112497;28;20389;-70
2023/01/22 09:19:12;;;;;;;2.33;0.80;;;5.00;70.60;;;;;;5112557;28;20359;-70
2023/01/22 09:21:38;;;;;;;3.30;0.75;;;5.10;70.30;;;;;;5111877;28;20077;-70
2023/01/22 09:24:04;;;;;;;3.20;1.00;;;5.10;70.70;;;;;;5111505;28;20055;-70
2023/01/22 09:26:33;;;;;;;2.25;1.10;;;5.00;71.10;;;;;;5111912;28;20378;-70
2023/01/22 09:28:59;;;;;;;2.55;0.98;;;5.00;70.90;;;;;;5112178;28;20080;-70
2023/01/22 09:31:26;;;;;;;3.13;0.93;;;5.10;70.20;;;;;;5111232;28;20028;-71
2023/01/22 09:33:54;;;;;;;2.90;1.00;;;5.00;69.90;;;;;;5111918;28;20016;-70
2023/01/22 09:36:20;;;;;;;1.70;0.88;;;4.90;70.60;;;;;;5111743;28;20051;-70
2023/01/22 09:38:46;;;;;;;3.20;1.63;;;5.00;70.50;;;;;;5112050;28;20084;-70
2023/01/22 09:41:41;;;;;;;2.53;0.90;;;5.00;71.30;;;;;;5110670;28;20019;-70
2023/01/22 09:44:39;;;;;;;3.00;1.25;;;4.90;71.50;;;;;;5111395;28;20032;-70
2023/01/22 09:47:17;;;;;;;2.03;1.00;;;4.80;70.70;;;;;;5105410;28;20048;-70
2023/01/22 09:50:01;;;;;;;3.55;0.95;;;4.80;70.80;;;;;;5110963;28;20092;-70
2023/01/22 09:52:31;;;;;;;2.35;1.02;;;4.80;72.10;;;;;;5110818;28;20019;-70
2023/01/22 09:54:56;;;;;;;2.28;0.90;;;4.80;72.70;;;;;;5111129;28;20035;-70
2023/01/22 09:57:22;;;;;;;3.83;1.67;;;4.80;70.90;;;;;;5111211;28;20023;-70
2023/01/22 09:59:51;;;;;;;3.17;1.10;;;4.80;70.80;;;;;;5110377;28;20034;-70
2023/01/22 10:02:26;;;;;;;2.10;1.00;;;4.90;71.20;;;;;;5110755;28;20038;-70
2023/01/22 10:05:04;;;;;;;1.95;0.90;;;4.90;71.40;;;;;;5111060;28;20040;-70
2023/01/22 10:07:42;;;;;;;4.40;2.13;;;4.90;71.20;;;;;;5092051;28;20108;-71
2023/01/22 10:10:24;;;;;;;2.20;0.88;;;4.80;72.00;;;;;;5110437;28;20369;-71
2023/01/22 10:13:13;;;;;;;4.90;1.08;;;5.00;71.30;;;;;;5110804;28;20051;-70
2023/01/22 10:15:38;;;;;;;3.25;1.05;;;5.00;71.30;;;;;;5095695;28;20043;-71
2023/01/22 10:18:36;;;;;;;4.13;1.13;;;5.10;71.60;;;;;;5111009;28;20035;-70
2023/01/22 10:21:09;;;;;;;2.60;1.00;;;5.10;71.80;;;;;;5100235;28;20088;-70
2023/01/22 10:23:35;;;;;;;3.92;2.55;;;5.30;71.20;;;;;;5110833;28;20066;-70
2023/01/22 10:26:12;;;;;;;1.95;1.10;;;5.40;71.40;;;;;;5110724;28;20059;-70
2023/01/22 10:28:44;;;;;;;2.80;0.80;;;5.50;70.50;;;;;;5111519;28;20446;-71
2023/01/22 10:31:46;;;;;;;2.05;1.17;;;5.60;71.20;;;;;;5110811;28;20099;-70
2023/01/22 10:34:34;;;;;;;2.10;0.88;;;5.60;70.70;;;;;;5048206;28;20072;-71
2023/01/22 10:37:01;;;;;;;1.60;0.65;;;5.70;70.30;;;;;;5090246;28;20040;-70
2023/01/22 10:39:36;;;;;;;2.80;1.27;;;5.60;70.60;;;;;;5089930;28;20665;-70
2023/01/22 10:42:02;;;;;;;1.42;0.75;;;5.70;71.10;;;;;;5106554;28;20075;-70
2023/01/22 10:44:28;;;;;;;1.42;0.70;;;5.70;70.00;;;;;;5110082;28;20084;-70
2023/01/22 10:46:54;;;;;;;1.60;0.70;;;5.70;70.60;;;;;;5109520;28;20096;-70
2023/01/22 10:49:24;;;;;;;6.85;1.08;;;5.70;70.00;;;;;;5110111;28;20126;-70
2023/01/22 10:51:56;;;;;;;2.17;1.15;;;5.60;70.10;;;;;;5110133;28;20038;-71
2023/01/22 10:54:30;;;;;;;2.97;0.93;;;5.60;69.80;;;;;;5110119;28;20024;-70
2023/01/22 10:57:26;;;;;;;1.08;0.57;;;5.60;68.90;;;;;;5110045;28;20019;-70
2023/01/22 11:00:17;;;;;;;2.80;0.73;;;5.60;69.60;;;;;;5110482;28;20412;-70
2023/01/22 11:02:46;;;;;;;1.63;0.70;;;5.60;68.70;;;;;;5097250;28;20036;-70
2023/01/22 11:05:23;;;;;;;2.53;1.27;;;5.60;69.70;;;;;;5110042;28;20075;-70
2023/01/22 11:07:55;;;;;;;2.15;1.00;;;5.70;69.90;;;;;;5109554;28;20188;-70
2023/01/22 11:10:35;;;;;;;2.25;1.10;;;5.80;68.80;;;;;;5109639;28;20504;-70
2023/01/22 11:13:18;;;;;;;3.72;1.10;;;5.90;69.00;;;;;;5109568;28;20039;-70
2023/01/22 11:16:02;;;;;;;1.50;0.63;;;5.90;69.30;;;;;;5109826;28;20038;-70
2023/01/22 11:18:33;;;;;;;1.63;0.80;;;6.00;70.20;;;;;;5109567;28;20027;-70
2023/01/22 11:21:00;;;;;;;2.40;0.90;;;6.30;70.00;;;;;;5109439;28;20373;-70
2023/01/22 11:23:32;;;;;;;4.32;0.90;;;6.30;69.50;;;;;;5109262;28;20035;-70
2023/01/22 11:26:18;;;;;;;1.33;0.65;;;6.30;68.90;;;;;;5109502;28;20613;-70
2023/01/22 11:29:21;;;;;;;2.13;0.93;;;6.30;69.00;;;;;;5109508;28;20030;-70
2023/01/22 11:32:32;;;;;;;2.33;1.02;;;6.30;69.10;;;;;;5107987;28;20019;-70
2023/01/22 11:35:23;;;;;;;2.55;0.98;;;6.40;69.70;;;;;;5109562;28;20034;-70
2023/01/22 11:38:13;;;;;;;1.02;0.55;;;6.70;69.00;;;;;;5105141;28;20054;-70
2023/01/22 11:40:58;;;;;;;2.63;1.00;;;6.90;69.00;;;;;;5108710;28;20354;-70
2023/01/22 11:44:02;;;;;;;1.92;0.70;;;6.90;67.70;;;;;;5109242;28;20040;-70
2023/01/22 11:46:40;;;;;;;2.67;1.02;;;6.90;69.20;;;;;;5109083;28;20047;-68
2023/01/22 11:49:21;;;;;;;2.70;1.10;;;7.00;68.60;;;;;;5109314;28;20377;-70
2023/01/22 11:52:20;;;;;;;1.60;0.98;;;6.90;68.30;;;;;;5108830;28;20008;-70
2023/01/22 11:55:16;;;;;;;1.45;0.63;;;6.70;68.60;;;;;;5105662;28;20384;-70
2023/01/22 11:57:54;;;;;;;3.60;1.00;;;6.70;69.40;;;;;;5109786;28;20110;-70
2023/01/22 12:00:19;;;;;;;1.92;1.00;;;6.70;69.70;;;;;;5108461;28;20376;-70
2023/01/22 12:02:48;;;;;;;2.30;1.20;;;6.60;68.40;;;;;;5108613;28;20110;-70
2023/01/22 12:05:42;;;;;;;2.45;1.02;;;6.70;69.20;;;;;;5090594;28;20514;-70
2023/01/22 12:08:46;;;;;;;1.67;0.70;;;6.80;69.60;;;;;;5088640;28;20043;-70
2023/01/22 12:11:20;;;;;;;1.58;0.70;;;6.70;69.10;;;;;;5050257;28;20090;-70
2023/01/22 12:14:23;;;;;;;2.08;0.80;;;6.60;69.00;;;;;;5085731;28;20028;-70
2023/01/22 12:17:18;;;;;;;1.83;0.90;;;6.50;68.40;;;;;;5088498;28;20031;-70
2023/01/22 12:20:16;;;;;;;3.22;1.23;;;6.60;69.40;;;;;;5032783;28;20052;-70
2023/01/22 12:23:17;;;;;;;1.83;0.75;;;6.50;68.90;;;;;;5084251;28;20132;-70
2023/01/22 12:25:45;;;;;;;1.80;0.88;;;6.40;69.50;;;;;;5088485;28;20099;-70
2023/01/22 12:28:20;;;;;;;2.70;1.10;;;6.40;68.40;;;;;;5088367;28;20051;-70
2023/01/22 12:31:00;;;;;;;2.70;1.13;;;6.40;68.90;;;;;;5106536;28;20088;-70
2023/01/22 12:33:29;;;;;;;1.80;0.88;;;6.30;68.80;;;;;;5113114;28;20111;-70
2023/01/22 12:35:59;;;;;;;2.83;1.10;;;6.50;69.20;;;;;;5111923;28;20829;-70
2023/01/22 12:39:06;;;;;;;2.05;0.90;;;6.40;69.50;;;;;;5112417;28;20039;-70
2023/01/22 12:41:55;;;;;;;2.47;1.00;;;6.40;69.60;;;;;;5080498;28;20044;-70
2023/01/22 12:44:31;;;;;;;5.35;1.83;;;6.40;69.80;;;;;;5112230;28;20115;-70
2023/01/22 12:47:09;;;;;;;2.50;0.90;;;6.40;69.00;;;;;;5112828;28;20466;-70
2023/01/22 12:49:51;;;;;;;2.45;1.00;;;6.40;69.10;;;;;;5111495;28;20031;-70
2023/01/22 12:53:19;;;;;;;1.80;0.75;;;6.40;68.90;;;;;;5111988;28;20031;-70
2023/01/22 12:55:57;;;;;;;2.72;1.25;;;6.40;68.80;;;;;;5082998;28;20047;-70
2023/01/22 12:58:25;;;;;;;3.08;1.10;;;6.60;69.40;;;;;;5109652;28;20063;-70
2023/01/22 13:01:10;;;;;;;2.35;0.93;;;6.60;69.10;;;;;;5108459;28;20066;-70
2023/01/22 13:03:37;;;;;;;2.72;1.20;;;6.70;69.70;;;;;;5109037;28;20477;-70
2023/01/22 13:06:21;;;;;;;3.15;0.95;;;6.70;69.80;;;;;;5109552;28;20020;-70
2023/01/22 13:08:47;;;;;;;2.08;1.13;;;6.70;69.00;;;;;;5109464;28;20020;-70
2023/01/22 13:11:34;;;;;;;2.50;1.00;;;6.80;69.80;;;;;;5108094;28;20038;-70
2023/01/22 13:14:22;;;;;;;2.75;1.13;;;6.60;69.70;;;;;;5090016;28;20122;-70
2023/01/22 13:16:55;;;;;;;2.20;0.95;;;6.70;70.40;;;;;;5109091;28;20024;-70
2023/01/22 13:19:25;;;;;;;2.97;1.23;;;6.60;69.80;;;;;;5108822;28;20028;-70
2023/01/22 13:21:51;;;;;;;2.08;1.00;;;6.70;69.70;;;;;;5108228;28;20027;-70